sensor_id;sensor_type;location;lat;lon;timestamp;pressure;altitude;pressure_sealevel;temperature;humidity
54308;BME280;40208;39.778;2.710;2022-08-30T00:00:41;101387.25;;;24.53;100.00
54308;BME280;40208;39.778;2.710;2022-08-30T00:03:45;101415.28;;;24.54;100.00
54308;BME280;40208;39.778;2.710;2022-08-30T00:06:30;101420.97;;;24.51;100.00
54308;BME280;40208;39.778;2.710;2022-08-30T00:09:15;101425.66;;;24.39;100.00
54308;BME280;40208;39.778;2.710;2022-08-30T00:12:00;101417.81;;;24.36;100.00
54308;BME280;40208;39.778;2.710;2022-08-30T00:14:46;101260.22;;;23.32;100.00
54308;BME280;40208;39.778;2.710;2022-08-30T00:17:31;101418.09;;;24.23;100.00
54308;BME280;40208;39.778;2.710;2022-08-30T00:20:19;101410.41;;;24.28;100.00
54308;BME280;40208;39.778;2.710;2022-08-30T00:23:04;101415.81;;;24.19;100.00
54308;BME280;40208;39.778;2.710;2022-08-30T00:25:49;101415.53;;;24.12;100.00
54308;BME280;40208;39.778;2.710;2022-08-30T00:28:34;101422.53;;;24.15;100.00
54308;BME280;40208;39.778;2.710;2022-08-30T00:31:19;101418.81;;;24.16;100.00
54308;BME280;40208;39.778;2.710;2022-08-30T00:34:04;101416.66;;;24.19;100.00
54308;BME280;40208;39.778;2.710;2022-08-30T00:36:49;101413.81;;;24.21;100.00
54308;BME280;40208;39.778;2.710;2022-08-30T00:39:33;101405.81;;;24.19;100.00
54308;BME280;40208;39.778;2.710;2022-08-30T00:42:19;101390.09;;;24.13;100.00
54308;BME280;40208;39.778;2.710;2022-08-30T00:47:56;101392.56;;;24.06;100.00
54308;BME280;40208;39.778;2.710;2022-08-30T00:50:45;101387.41;;;24.03;100.00
54308;BME280;40208;39.778;2.710;2022-08-30T00:53:33;101398.66;;;23.99;100.00
54308;BME280;40208;39.778;2.710;2022-08-30T00:56:20;101397.25;;;23.95;100.00
54308;BME280;40208;39.778;2.710;2022-08-30T00:59:07;101367.97;;;23.79;100.00
54308;BME280;40208;39.778;2.710;2022-08-30T01:01:52;101376.25;;;23.87;100.00
54308;BME280;40208;39.778;2.710;2022-08-30T01:04:41;101378.69;;;23.80;100.00
54308;BME280;40208;39.778;2.710;2022-08-30T01:07:26;101380.09;;;23.75;100.00
54308;BME280;40208;39.778;2.710;2022-08-30T01:10:13;101373.91;;;23.73;100.00
54308;BME280;40208;39.778;2.710;2022-08-30T01:12:58;101363.34;;;23.60;100.00
54308;BME280;40208;39.778;2.710;2022-08-30T01:15:44;101381.78;;;23.66;100.00
54308;BME280;40208;39.778;2.710;2022-08-30T01:18:30;101386.06;;;23.68;100.00
54308;BME280;40208;39.778;2.710;2022-08-30T01:21:36;101385.06;;;23.69;100.00
54308;BME280;40208;39.778;2.710;2022-08-30T01:24:25;101387.47;;;23.73;100.00
54308;BME280;40208;39.778;2.710;2022-08-30T01:27:10;101400.63;;;23.77;100.00
54308;BME280;40208;39.778;2.710;2022-08-30T01:29:55;101393.41;;;23.78;100.00
54308;BME280;40208;39.778;2.710;2022-08-30T01:32:43;101401.53;;;23.78;100.00
54308;BME280;40208;39.778;2.710;2022-08-30T01:35:32;101400.81;;;23.76;100.00
54308;BME280;40208;39.778;2.710;2022-08-30T01:38:28;101402.47;;;23.67;100.00
54308;BME280;40208;39.778;2.710;2022-08-30T01:41:29;101393.28;;;23.58;100.00
54308;BME280;40208;39.778;2.710;2022-08-30T01:44:15;101400.69;;;23.56;100.00
54308;BME280;40208;39.778;2.710;2022-08-30T01:46:59;101402.25;;;23.49;100.00
54308;BME280;40208;39.778;2.710;2022-08-30T01:49:45;101406.81;;;23.48;100.00
54308;BME280;40208;39.778;2.710;2022-08-30T01:52:32;101402.81;;;23.43;100.00
54308;BME280;40208;39.778;2.710;2022-08-30T01:55:17;101406.38;;;23.43;100.00
54308;BME280;40208;39.778;2.710;2022-08-30T01:58:02;101396.38;;;23.34;100.00
54308;BME280;40208;39.778;2.710;2022-08-30T02:00:48;101410.22;;;23.41;100.00
54308;BME280;40208;39.778;2.710;2022-08-30T02:03:33;101403.34;;;23.37;100.00
54308;BME280;40208;39.778;2.710;2022-08-30T02:06:20;101412.22;;;23.39;100.00
54308;BME280;40208;39.778;2.710;2022-08-30T02:09:05;101409.78;;;23.36;100.00
54308;BME280;40208;39.778;2.710;2022-08-30T02:11:49;101393.81;;;23.33;100.00
54308;BME280;40208;39.778;2.710;2022-08-30T02:14:35;101390.94;;;23.34;100.00
54308;BME280;40208;39.778;2.710;2022-08-30T02:17:20;101393.94;;;23.31;100.00
54308;BME280;40208;39.778;2.710;2022-08-30T02:20:05;101346.94;;;23.01;100.00
54308;BME280;40208;39.778;2.710;2022-08-30T02:22:50;101379.38;;;23.22;100.00
54308;BME280;40208;39.778;2.710;2022-08-30T02:25:35;101379.44;;;23.11;100.00
54308;BME280;40208;39.778;2.710;2022-08-30T02:28:20;101323.06;;;22.85;100.00
54308;BME280;40208;39.778;2.710;2022-08-30T02:31:05;101372.78;;;23.15;100.00
54308;BME280;40208;39.778;2.710;2022-08-30T02:33:52;101367.38;;;23.15;100.00
54308;BME280;40208;39.778;2.710;2022-08-30T02:36:37;101323.94;;;22.96;100.00
54308;BME280;40208;39.778;2.710;2022-08-30T02:39:24;101354.81;;;23.04;100.00
54308;BME280;40208;39.778;2.710;2022-08-30T02:42:09;101359.63;;;23.01;100.00
54308;BME280;40208;39.778;2.710;2022-08-30T02:44:54;101352.50;;;23.00;100.00
54308;BME280;40208;39.778;2.710;2022-08-30T02:47:39;101347.09;;;23.00;100.00
54308;BME280;40208;39.778;2.710;2022-08-30T02:50:24;101355.59;;;22.95;100.00
54308;BME280;40208;39.778;2.710;2022-08-30T02:53:09;101343.63;;;22.98;100.00
54308;BME280;40208;39.778;2.710;2022-08-30T02:55:54;101343.63;;;22.98;100.00
54308;BME280;40208;39.778;2.710;2022-08-30T02:58:40;101357.84;;;22.90;100.00
54308;BME280;40208;39.778;2.710;2022-08-30T03:01:26;101350.28;;;22.94;100.00
54308;BME280;40208;39.778;2.710;2022-08-30T03:04:10;101358.03;;;22.77;100.00
54308;BME280;40208;39.778;2.710;2022-08-30T03:06:55;101344.09;;;22.82;100.00
54308;BME280;40208;39.778;2.710;2022-08-30T03:09:40;101339.66;;;22.71;100.00
54308;BME280;40208;39.778;2.710;2022-08-30T03:12:25;101340.09;;;22.76;100.00
54308;BME280;40208;39.778;2.710;2022-08-30T03:15:11;101332.72;;;22.78;100.00
54308;BME280;40208;39.778;2.710;2022-08-30T03:17:56;101327.56;;;22.75;100.00
54308;BME280;40208;39.778;2.710;2022-08-30T03:20:42;101321.28;;;22.75;100.00
54308;BME280;40208;39.778;2.710;2022-08-30T03:23:26;101317.84;;;22.73;100.00
54308;BME280;40208;39.778;2.710;2022-08-30T03:26:12;101321.56;;;22.72;100.00
54308;BME280;40208;39.778;2.710;2022-08-30T03:28:58;101300.78;;;22.72;100.00
54308;BME280;40208;39.778;2.710;2022-08-30T03:31:43;101298.16;;;22.61;100.00
54308;BME280;40208;39.778;2.710;2022-08-30T03:34:27;101307.03;;;22.73;100.00
54308;BME280;40208;39.778;2.710;2022-08-30T03:37:12;101315.31;;;22.71;100.00
54308;BME280;40208;39.778;2.710;2022-08-30T03:39:57;101325.25;;;22.71;100.00
54308;BME280;40208;39.778;2.710;2022-08-30T03:42:42;101289.41;;;22.48;100.00
54308;BME280;40208;39.778;2.710;2022-08-30T03:45:27;101336.22;;;22.69;100.00
54308;BME280;40208;39.778;2.710;2022-08-30T03:48:12;101301.41;;;22.55;100.00
54308;BME280;40208;39.778;2.710;2022-08-30T03:50:57;101331.94;;;22.67;100.00
54308;BME280;40208;39.778;2.710;2022-08-30T03:53:42;101337.31;;;22.57;100.00
54308;BME280;40208;39.778;2.710;2022-08-30T03:56:27;101347.84;;;22.60;100.00
54308;BME280;40208;39.778;2.710;2022-08-30T03:59:12;101354.00;;;22.62;100.00
54308;BME280;40208;39.778;2.710;2022-08-30T04:01:57;101354.19;;;22.49;100.00
54308;BME280;40208;39.778;2.710;2022-08-30T04:04:42;101353.78;;;22.54;100.00
54308;BME280;40208;39.778;2.710;2022-08-30T04:07:27;101359.78;;;22.57;100.00
54308;BME280;40208;39.778;2.710;2022-08-30T04:10:12;101350.69;;;22.58;100.00
54308;BME280;40208;39.778;2.710;2022-08-30T04:12:57;101335.84;;;22.53;100.00
54308;BME280;40208;39.778;2.710;2022-08-30T04:15:42;101340.84;;;22.57;100.00
54308;BME280;40208;39.778;2.710;2022-08-30T04:18:27;101346.06;;;22.49;100.00
54308;BME280;40208;39.778;2.710;2022-08-30T04:21:12;101344.25;;;22.50;100.00
54308;BME280;40208;39.778;2.710;2022-08-30T04:23:56;101352.47;;;22.48;100.00
54308;BME280;40208;39.778;2.710;2022-08-30T04:26:41;101346.94;;;22.50;100.00
54308;BME280;40208;39.778;2.710;2022-08-30T04:29:26;101340.06;;;22.46;100.00
54308;BME280;40208;39.778;2.710;2022-08-30T04:32:11;101345.38;;;22.47;100.00
54308;BME280;40208;39.778;2.710;2022-08-30T04:34:56;101339.69;;;22.50;100.00
54308;BME280;40208;39.778;2.710;2022-08-30T04:37:41;101343.97;;;22.53;100.00
54308;BME280;40208;39.778;2.710;2022-08-30T04:40:26;101347.41;;;22.55;100.00
54308;BME280;40208;39.778;2.710;2022-08-30T04:43:11;101342.09;;;22.53;100.00
54308;BME280;40208;39.778;2.710;2022-08-30T04:45:56;101350.84;;;22.57;100.00
54308;BME280;40208;39.778;2.710;2022-08-30T04:48:41;101364.16;;;22.49;100.00
54308;BME280;40208;39.778;2.710;2022-08-30T04:51:26;101363.56;;;22.45;100.00
54308;BME280;40208;39.778;2.710;2022-08-30T04:54:11;101372.66;;;22.44;100.00
54308;BME280;40208;39.778;2.710;2022-08-30T04:56:55;101371.19;;;22.40;100.00
54308;BME280;40208;39.778;2.710;2022-08-30T04:59:40;101376.75;;;22.38;100.00
54308;BME280;40208;39.778;2.710;2022-08-30T05:02:25;101375.19;;;22.36;100.00
54308;BME280;40208;39.778;2.710;2022-08-30T05:05:10;101381.72;;;22.33;100.00
54308;BME280;40208;39.778;2.710;2022-08-30T05:08:16;101371.53;;;22.26;100.00
54308;BME280;40208;39.778;2.710;2022-08-30T05:11:03;101382.34;;;22.26;100.00
54308;BME280;40208;39.778;2.710;2022-08-30T05:13:48;101382.34;;;22.26;100.00
54308;BME280;40208;39.778;2.710;2022-08-30T05:16:33;101382.34;;;22.26;100.00
54308;BME280;40208;39.778;2.710;2022-08-30T05:19:18;101380.91;;;22.21;100.00
54308;BME280;40208;39.778;2.710;2022-08-30T05:22:03;101362.09;;;22.09;100.00
54308;BME280;40208;39.778;2.710;2022-08-30T05:24:48;101389.38;;;22.17;100.00
54308;BME280;40208;39.778;2.710;2022-08-30T05:27:33;101380.66;;;22.13;100.00
54308;BME280;40208;39.778;2.710;2022-08-30T05:30:19;101385.22;;;22.13;100.00
54308;BME280;40208;39.778;2.710;2022-08-30T05:33:04;101382.50;;;22.13;100.00
54308;BME280;40208;39.778;2.710;2022-08-30T05:35:48;101376.34;;;22.11;100.00
54308;BME280;40208;39.778;2.710;2022-08-30T05:38:33;101376.63;;;22.08;100.00
54308;BME280;40208;39.778;2.710;2022-08-30T05:41:20;101362.03;;;21.99;100.00
54308;BME280;40208;39.778;2.710;2022-08-30T05:44:09;101383.50;;;22.12;100.00
54308;BME280;40208;39.778;2.710;2022-08-30T05:46:54;101388.91;;;22.12;100.00
54308;BME280;40208;39.778;2.710;2022-08-30T05:49:39;101393.44;;;22.11;100.00
54308;BME280;40208;39.778;2.710;2022-08-30T05:52:24;101347.13;;;21.84;100.00
54308;BME280;40208;39.778;2.710;2022-08-30T05:55:10;101401.53;;;22.11;100.00
54308;BME280;40208;39.778;2.710;2022-08-30T05:57:55;101389.69;;;22.02;100.00
54308;BME280;40208;39.778;2.710;2022-08-30T06:00:40;101409.06;;;22.08;100.00
54308;BME280;40208;39.778;2.710;2022-08-30T06:03:26;101419.63;;;22.11;100.00
54308;BME280;40208;39.778;2.710;2022-08-30T06:06:11;101419.63;;;22.11;100.00
54308;BME280;40208;39.778;2.710;2022-08-30T06:08:56;101421.34;;;22.12;100.00
54308;BME280;40208;39.778;2.710;2022-08-30T06:11:42;101423.91;;;22.13;100.00
54308;BME280;40208;39.778;2.710;2022-08-30T06:14:27;101424.63;;;22.15;100.00
54308;BME280;40208;39.778;2.710;2022-08-30T06:17:11;101421.81;;;22.17;100.00
54308;BME280;40208;39.778;2.710;2022-08-30T06:19:56;101422.44;;;22.20;100.00
54308;BME280;40208;39.778;2.710;2022-08-30T06:22:41;101411.63;;;22.20;100.00
54308;BME280;40208;39.778;2.710;2022-08-30T06:25:26;101404.59;;;22.18;100.00
54308;BME280;40208;39.778;2.710;2022-08-30T06:28:11;101418.84;;;22.31;100.00
54308;BME280;40208;39.778;2.710;2022-08-30T06:30:57;101300.59;;;21.69;100.00
54308;BME280;40208;39.778;2.710;2022-08-30T06:33:41;101408.53;;;22.25;100.00
54308;BME280;40208;39.778;2.710;2022-08-30T06:36:26;101430.13;;;22.36;100.00
54308;BME280;40208;39.778;2.710;2022-08-30T06:39:11;101380.75;;;22.23;100.00
54308;BME280;40208;39.778;2.710;2022-08-30T06:41:56;101433.69;;;22.58;100.00
54308;BME280;40208;39.778;2.710;2022-08-30T06:44:41;101427.88;;;22.62;100.00
54308;BME280;40208;39.778;2.710;2022-08-30T06:47:27;101430.94;;;22.69;100.00
54308;BME280;40208;39.778;2.710;2022-08-30T06:50:13;101442.50;;;22.71;100.00
54308;BME280;40208;39.778;2.710;2022-08-30T06:52:59;101441.03;;;22.67;100.00
54308;BME280;40208;39.778;2.710;2022-08-30T06:55:56;101444.81;;;22.76;100.00
54308;BME280;40208;39.778;2.710;2022-08-30T06:58:41;101402.94;;;22.59;100.00
54308;BME280;40208;39.778;2.710;2022-08-30T07:01:27;101421.88;;;22.80;100.00
54308;BME280;40208;39.778;2.710;2022-08-30T07:04:12;101449.97;;;23.00;100.00
54308;BME280;40208;39.778;2.710;2022-08-30T07:06:57;101442.88;;;23.08;100.00
54308;BME280;40208;39.778;2.710;2022-08-30T07:09:42;101437.25;;;23.21;100.00
54308;BME280;40208;39.778;2.710;2022-08-30T07:12:27;101437.84;;;23.35;100.00
54308;BME280;40208;39.778;2.710;2022-08-30T07:15:12;101427.50;;;23.40;100.00
54308;BME280;40208;39.778;2.710;2022-08-30T07:17:58;101432.53;;;23.54;100.00
54308;BME280;40208;39.778;2.710;2022-08-30T07:21:12;101434.53;;;23.62;100.00
54308;BME280;40208;39.778;2.710;2022-08-30T07:23:58;101432.88;;;23.70;100.00
54308;BME280;40208;39.778;2.710;2022-08-30T07:26:45;101437.03;;;23.84;100.00
54308;BME280;40208;39.778;2.710;2022-08-30T07:29:32;101443.19;;;23.96;100.00
54308;BME280;40208;39.778;2.710;2022-08-30T07:32:17;101443.91;;;24.08;100.00
54308;BME280;40208;39.778;2.710;2022-08-30T07:35:02;101441.09;;;24.19;100.00
54308;BME280;40208;39.778;2.710;2022-08-30T07:37:46;101418.66;;;24.17;100.00
54308;BME280;40208;39.778;2.710;2022-08-30T07:40:31;101440.22;;;24.38;100.00
54308;BME280;40208;39.778;2.710;2022-08-30T07:43:16;101433.53;;;24.42;100.00
54308;BME280;40208;39.778;2.710;2022-08-30T07:46:04;101436.41;;;24.50;100.00
54308;BME280;40208;39.778;2.710;2022-08-30T07:48:50;101446.09;;;24.63;100.00
54308;BME280;40208;39.778;2.710;2022-08-30T07:51:35;101446.94;;;24.73;100.00
54308;BME280;40208;39.778;2.710;2022-08-30T07:54:20;101411.25;;;24.58;100.00
54308;BME280;40208;39.778;2.710;2022-08-30T07:57:05;101457.47;;;24.95;100.00
54308;BME280;40208;39.778;2.710;2022-08-30T07:59:50;101467.44;;;25.05;100.00
54308;BME280;40208;39.778;2.710;2022-08-30T08:02:35;101462.69;;;25.16;100.00
54308;BME280;40208;39.778;2.710;2022-08-30T08:05:20;101424.84;;;25.05;100.00
54308;BME280;40208;39.778;2.710;2022-08-30T08:08:05;101478.81;;;25.37;100.00
54308;BME280;40208;39.778;2.710;2022-08-30T08:10:50;101475.22;;;25.47;100.00
54308;BME280;40208;39.778;2.710;2022-08-30T08:13:35;101446.75;;;25.41;100.00
54308;BME280;40208;39.778;2.710;2022-08-30T08:16:22;101474.41;;;25.64;100.00
54308;BME280;40208;39.778;2.710;2022-08-30T08:19:07;101472.09;;;25.69;100.00
54308;BME280;40208;39.778;2.710;2022-08-30T08:21:52;101438.97;;;25.56;100.00
54308;BME280;40208;39.778;2.710;2022-08-30T08:24:43;101473.03;;;25.88;100.00
54308;BME280;40208;39.778;2.710;2022-08-30T08:27:28;101479.41;;;25.96;100.00
54308;BME280;40208;39.778;2.710;2022-08-30T08:30:13;101461.84;;;25.81;100.00
54308;BME280;40208;39.778;2.710;2022-08-30T08:32:58;101493.94;;;26.05;100.00
54308;BME280;40208;39.778;2.710;2022-08-30T08:35:43;101514.09;;;26.12;100.00
54308;BME280;40208;39.778;2.710;2022-08-30T08:38:28;101525.47;;;26.26;100.00
54308;BME280;40208;39.778;2.710;2022-08-30T08:47:38;101544.69;;;26.42;100.00
54308;BME280;40208;39.778;2.710;2022-08-30T08:50:24;101555.22;;;26.55;100.00
54308;BME280;40208;39.778;2.710;2022-08-30T08:53:17;101553.06;;;26.58;100.00
54308;BME280;40208;39.778;2.710;2022-08-30T08:56:21;101562.31;;;26.65;100.00
54308;BME280;40208;39.778;2.710;2022-08-30T08:59:08;101570.03;;;26.70;100.00
54308;BME280;40208;39.778;2.710;2022-08-30T09:01:58;101561.06;;;26.78;100.00
54308;BME280;40208;39.778;2.710;2022-08-30T09:04:45;101560.75;;;26.81;100.00
54308;BME280;40208;39.778;2.710;2022-08-30T09:07:37;101559.28;;;26.86;100.00
54308;BME280;40208;39.778;2.710;2022-08-30T09:10:23;101540.38;;;26.85;100.00
54308;BME280;40208;39.778;2.710;2022-08-30T09:13:08;101514.94;;;26.58;100.00
54308;BME280;40208;39.778;2.710;2022-08-30T09:15:56;101546.19;;;26.90;100.00
54308;BME280;40208;39.778;2.710;2022-08-30T09:18:46;101543.75;;;27.05;100.00
54308;BME280;40208;39.778;2.710;2022-08-30T09:21:31;101551.06;;;27.04;100.00
54308;BME280;40208;39.778;2.710;2022-08-30T09:24:16;101546.06;;;27.18;100.00
54308;BME280;40208;39.778;2.710;2022-08-30T09:27:13;101532.16;;;27.21;100.00
54308;BME280;40208;39.778;2.710;2022-08-30T09:30:04;101526.69;;;27.21;100.00
54308;BME280;40208;39.778;2.710;2022-08-30T09:32:56;101522.69;;;27.33;100.00
54308;BME280;40208;39.778;2.710;2022-08-30T09:35:47;101531.41;;;27.37;100.00
54308;BME280;40208;39.778;2.710;2022-08-30T09:38:32;101480.66;;;27.18;100.00
54308;BME280;40208;39.778;2.710;2022-08-30T09:41:47;101518.00;;;27.43;100.00
54308;BME280;40208;39.778;2.710;2022-08-30T09:44:36;101515.28;;;27.52;100.00
54308;BME280;40208;39.778;2.710;2022-08-30T09:47:28;101510.19;;;27.57;100.00
54308;BME280;40208;39.778;2.710;2022-08-30T09:50:18;101491.13;;;27.57;100.00
54308;BME280;40208;39.778;2.710;2022-08-30T09:53:15;101467.41;;;27.57;100.00
54308;BME280;40208;39.778;2.710;2022-08-30T09:56:07;101467.25;;;27.59;100.00
54308;BME280;40208;39.778;2.710;2022-08-30T10:02:29;101529.13;;;27.92;100.00
54308;BME280;40208;39.778;2.710;2022-08-30T10:14:19;101443.25;;;28.13;100.00
54308;BME280;40208;39.778;2.710;2022-08-30T10:23:11;101388.00;;;28.19;100.00
54308;BME280;40208;39.778;2.710;2022-08-30T10:29:53;101384.91;;;28.22;100.00
54308;BME280;40208;39.778;2.710;2022-08-30T10:35:43;101360.50;;;28.04;100.00
54308;BME280;40208;39.778;2.710;2022-08-30T10:38:35;101412.19;;;28.06;100.00
54308;BME280;40208;39.778;2.710;2022-08-30T10:44:26;101528.41;;;28.33;100.00
54308;BME280;40208;39.778;2.710;2022-08-30T10:50:15;101503.28;;;28.13;100.00
54308;BME280;40208;39.778;2.710;2022-08-30T10:53:11;101522.44;;;28.38;100.00
54308;BME280;40208;39.778;2.710;2022-08-30T10:56:05;101531.31;;;28.31;100.00
54308;BME280;40208;39.778;2.710;2022-08-30T10:58:52;101542.06;;;28.33;100.00
54308;BME280;40208;39.778;2.710;2022-08-30T11:11:11;101523.22;;;28.64;100.00
54308;BME280;40208;39.778;2.710;2022-08-30T11:14:01;101514.50;;;28.69;100.00
54308;BME280;40208;39.778;2.710;2022-08-30T11:16:49;101477.03;;;28.45;100.00
54308;BME280;40208;39.778;2.710;2022-08-30T11:19:37;101488.88;;;28.62;100.00
54308;BME280;40208;39.778;2.710;2022-08-30T11:22:30;101523.38;;;28.95;100.00
54308;BME280;40208;39.778;2.710;2022-08-30T11:25:55;101510.22;;;28.91;100.00
54308;BME280;40208;39.778;2.710;2022-08-30T11:31:42;101504.03;;;28.97;100.00
54308;BME280;40208;39.778;2.710;2022-08-30T11:52:17;101462.47;;;29.34;100.00
54308;BME280;40208;39.778;2.710;2022-08-30T11:55:43;101465.53;;;29.39;100.00
54308;BME280;40208;39.778;2.710;2022-08-30T12:04:46;101463.94;;;29.53;100.00
54308;BME280;40208;39.778;2.710;2022-08-30T12:07:56;101462.94;;;29.54;100.00
54308;BME280;40208;39.778;2.710;2022-08-30T12:10:44;101464.47;;;29.57;100.00
54308;BME280;40208;39.778;2.710;2022-08-30T12:16:41;101452.31;;;29.59;100.00
54308;BME280;40208;39.778;2.710;2022-08-30T12:19:47;101442.38;;;29.58;100.00
54308;BME280;40208;39.778;2.710;2022-08-30T12:22:33;101443.78;;;29.54;100.00
54308;BME280;40208;39.778;2.710;2022-08-30T12:25:29;101439.16;;;29.55;100.00
54308;BME280;40208;39.778;2.710;2022-08-30T12:28:23;101432.16;;;29.52;100.00
54308;BME280;40208;39.778;2.710;2022-08-30T12:31:16;101325.41;;;28.98;100.00
54308;BME280;40208;39.778;2.710;2022-08-30T12:34:01;101413.03;;;29.52;100.00
54308;BME280;40208;39.778;2.710;2022-08-30T12:36:54;101395.41;;;29.55;100.00
54308;BME280;40208;39.778;2.710;2022-08-30T12:39:41;101400.13;;;29.69;100.00
54308;BME280;40208;39.778;2.710;2022-08-30T12:42:29;101397.41;;;29.69;100.00
54308;BME280;40208;39.778;2.710;2022-08-30T12:45:17;101381.47;;;29.73;100.00
54308;BME280;40208;39.778;2.710;2022-08-30T12:48:07;101342.59;;;29.54;100.00
54308;BME280;40208;39.778;2.710;2022-08-30T12:50:57;101313.25;;;29.40;100.00
54308;BME280;40208;39.778;2.710;2022-08-30T12:53:42;101413.38;;;30.12;100.00
54308;BME280;40208;39.778;2.710;2022-08-30T12:59:53;101387.31;;;30.16;100.00
54308;BME280;40208;39.778;2.710;2022-08-30T13:02:47;101398.16;;;30.32;100.00
54308;BME280;40208;39.778;2.710;2022-08-30T13:05:42;101390.28;;;30.37;100.00
54308;BME280;40208;39.778;2.710;2022-08-30T13:08:47;101340.16;;;30.06;100.00
54308;BME280;40208;39.778;2.710;2022-08-30T13:11:34;101393.97;;;30.45;100.00
54308;BME280;40208;39.778;2.710;2022-08-30T13:20:18;101410.59;;;30.58;100.00
54308;BME280;40208;39.778;2.710;2022-08-30T13:23:07;101420.53;;;30.59;100.00
54308;BME280;40208;39.778;2.710;2022-08-30T13:25:52;101414.41;;;30.57;100.00
54308;BME280;40208;39.778;2.710;2022-08-30T13:28:50;101403.59;;;30.40;100.00
54308;BME280;40208;39.778;2.710;2022-08-30T13:31:35;101429.00;;;30.49;100.00
54308;BME280;40208;39.778;2.710;2022-08-30T13:34:20;101419.94;;;30.49;100.00
54308;BME280;40208;39.778;2.710;2022-08-30T13:37:06;101417.47;;;30.54;100.00
54308;BME280;40208;39.778;2.710;2022-08-30T13:39:53;101415.91;;;30.59;100.00
54308;BME280;40208;39.778;2.710;2022-08-30T13:42:38;101398.41;;;30.46;100.00
54308;BME280;40208;39.778;2.710;2022-08-30T13:45:26;101407.88;;;30.58;100.00
54308;BME280;40208;39.778;2.710;2022-08-30T13:48:12;101331.13;;;30.05;100.00
54308;BME280;40208;39.778;2.710;2022-08-30T13:50:58;101415.41;;;30.56;100.00
54308;BME280;40208;39.778;2.710;2022-08-30T13:53:44;101409.94;;;30.56;100.00
54308;BME280;40208;39.778;2.710;2022-08-30T13:56:29;101380.91;;;30.47;100.00
54308;BME280;40208;39.778;2.710;2022-08-30T13:59:16;101278.44;;;29.80;100.00
54308;BME280;40208;39.778;2.710;2022-08-30T14:02:01;101387.84;;;30.57;100.00
54308;BME280;40208;39.778;2.710;2022-08-30T14:04:46;101381.97;;;30.60;100.00
54308;BME280;40208;39.778;2.710;2022-08-30T14:07:30;101376.16;;;30.63;100.00
54308;BME280;40208;39.778;2.710;2022-08-30T14:10:17;101349.56;;;30.49;100.00
54308;BME280;40208;39.778;2.710;2022-08-30T14:13:03;101294.31;;;30.22;100.00
54308;BME280;40208;39.778;2.710;2022-08-30T14:15:50;101365.47;;;30.69;100.00
54308;BME280;40208;39.778;2.710;2022-08-30T14:18:35;101330.31;;;30.42;100.00
54308;BME280;40208;39.778;2.710;2022-08-30T14:21:20;101319.91;;;30.53;100.00
54308;BME280;40208;39.778;2.710;2022-08-30T14:24:04;101351.56;;;30.70;100.00
54308;BME280;40208;39.778;2.710;2022-08-30T14:26:50;101260.16;;;30.18;100.00
54308;BME280;40208;39.778;2.710;2022-08-30T14:29:35;101342.69;;;30.68;100.00
54308;BME280;40208;39.778;2.710;2022-08-30T14:32:20;101338.25;;;30.67;100.00
54308;BME280;40208;39.778;2.710;2022-08-30T14:35:05;101208.88;;;29.97;100.00
54308;BME280;40208;39.778;2.710;2022-08-30T14:37:50;101325.88;;;30.71;100.00
54308;BME280;40208;39.778;2.710;2022-08-30T14:40:34;101314.91;;;30.71;100.00
54308;BME280;40208;39.778;2.710;2022-08-30T14:43:19;101291.66;;;30.52;100.00
54308;BME280;40208;39.778;2.710;2022-08-30T14:46:04;101311.50;;;30.69;100.00
54308;BME280;40208;39.778;2.710;2022-08-30T14:48:49;101314.91;;;30.71;100.00
54308;BME280;40208;39.778;2.710;2022-08-30T14:51:34;101276.25;;;30.51;100.00
54308;BME280;40208;39.778;2.710;2022-08-30T14:54:22;101294.13;;;30.62;100.00
54308;BME280;40208;39.778;2.710;2022-08-30T14:57:08;101296.09;;;30.68;100.00
54308;BME280;40208;39.778;2.710;2022-08-30T14:59:53;101199.25;;;30.16;100.00
54308;BME280;40208;39.778;2.710;2022-08-30T15:02:37;101279.38;;;30.63;100.00
54308;BME280;40208;39.778;2.710;2022-08-30T15:05:22;101283.56;;;30.59;100.00
54308;BME280;40208;39.778;2.710;2022-08-30T15:08:07;101286.28;;;30.59;100.00
54308;BME280;40208;39.778;2.710;2022-08-30T15:10:52;101271.81;;;30.50;100.00
54308;BME280;40208;39.778;2.710;2022-08-30T15:13:38;101275.63;;;30.64;100.00
54308;BME280;40208;39.778;2.710;2022-08-30T15:16:28;101267.47;;;30.56;100.00
54308;BME280;40208;39.778;2.710;2022-08-30T15:19:13;101262.78;;;30.50;100.00
54308;BME280;40208;39.778;2.710;2022-08-30T15:22:00;101265.50;;;30.50;100.00
54308;BME280;40208;39.778;2.710;2022-08-30T15:24:45;101270.31;;;30.48;100.00
54308;BME280;40208;39.778;2.710;2022-08-30T15:27:30;101265.22;;;30.45;100.00
54308;BME280;40208;39.778;2.710;2022-08-30T15:30:15;101265.78;;;30.40;100.00
54308;BME280;40208;39.778;2.710;2022-08-30T15:33:00;101256.91;;;30.38;100.00
54308;BME280;40208;39.778;2.710;2022-08-30T15:35:45;101260.09;;;30.41;100.00
54308;BME280;40208;39.778;2.710;2022-08-30T15:38:30;101265.59;;;30.41;100.00
54308;BME280;40208;39.778;2.710;2022-08-30T15:41:15;101264.19;;;30.46;100.00
54308;BME280;40208;39.778;2.710;2022-08-30T15:44:01;101268.59;;;30.47;100.00
54308;BME280;40208;39.778;2.710;2022-08-30T15:46:46;101264.28;;;30.37;100.00
54308;BME280;40208;39.778;2.710;2022-08-30T15:49:31;101273.34;;;30.53;100.00
54308;BME280;40208;39.778;2.710;2022-08-30T15:52:15;101239.63;;;30.37;100.00